sensor_id;sensor_type;location;lat;lon;timestamp;pressure;altitude;pressure_sealevel;temperature;humidity
48553;BME280;34335;51.566;6.994;2022-08-05T00:00:26;100742.38;;;21.28;71.43
48553;BME280;34335;51.566;6.994;2022-08-05T00:02:52;100745.66;;;21.33;72.88
48553;BME280;34335;51.566;6.994;2022-08-05T00:05:21;100749.94;;;21.16;70.85
48553;BME280;34335;51.566;6.994;2022-08-05T00:07:46;100756.53;;;21.27;68.99
48553;BME280;34335;51.566;6.994;2022-08-05T00:10:12;100766.84;;;21.33;68.29
48553;BME280;34335;51.566;6.994;2022-08-05T00:12:37;100760.69;;;21.32;68.25
48553;BME280;34335;51.566;6.994;2022-08-05T00:15:03;100772.19;;;21.31;68.42
48553;BME280;34335;51.566;6.994;2022-08-05T00:17:29;100776.56;;;21.32;67.17
48553;BME280;34335;51.566;6.994;2022-08-05T00:19:54;100768.75;;;21.29;67.25
48553;BME280;34335;51.566;6.994;2022-08-05T00:22:19;100769.56;;;21.31;67.35
48553;BME280;34335;51.566;6.994;2022-08-05T00:24:45;100769.75;;;21.27;67.47
48553;BME280;34335;51.566;6.994;2022-08-05T00:27:10;100763.81;;;21.22;66.85
48553;BME280;34335;51.566;6.994;2022-08-05T00:29:35;100780.69;;;21.19;67.60
48553;BME280;34335;51.566;6.994;2022-08-05T00:32:01;100783.00;;;21.06;70.33
48553;BME280;34335;51.566;6.994;2022-08-05T00:34:27;100785.66;;;21.06;67.50
48553;BME280;34335;51.566;6.994;2022-08-05T00:36:53;100790.09;;;21.06;67.02
48553;BME280;34335;51.566;6.994;2022-08-05T00:39:18;100783.13;;;21.03;67.25
48553;BME280;34335;51.566;6.994;2022-08-05T00:41:45;100792.13;;;20.99;66.61
48553;BME280;34335;51.566;6.994;2022-08-05T00:44:11;100781.03;;;20.91;70.50
48553;BME280;34335;51.566;6.994;2022-08-05T00:46:36;100783.75;;;20.67;74.45
48553;BME280;34335;51.566;6.994;2022-08-05T00:49:01;100779.97;;;20.52;75.36
48553;BME280;34335;51.566;6.994;2022-08-05T00:51:27;100797.38;;;19.42;87.98
48553;BME280;34335;51.566;6.994;2022-08-05T00:53:52;100793.59;;;19.49;85.04
48553;BME280;34335;51.566;6.994;2022-08-05T00:56:17;100796.56;;;19.16;91.43
48553;BME280;34335;51.566;6.994;2022-08-05T00:58:43;100800.84;;;18.93;92.56
48553;BME280;34335;51.566;6.994;2022-08-05T01:01:10;100800.41;;;19.31;87.16
48553;BME280;34335;51.566;6.994;2022-08-05T01:03:37;100793.41;;;19.30;88.40
48553;BME280;34335;51.566;6.994;2022-08-05T01:06:03;100804.72;;;19.34;89.85
48553;BME280;34335;51.566;6.994;2022-08-05T01:08:28;100803.00;;;19.07;90.29
48553;BME280;34335;51.566;6.994;2022-08-05T01:11:01;100801.50;;;19.25;88.59
48553;BME280;34335;51.566;6.994;2022-08-05T01:15:58;100807.84;;;19.20;89.14
48553;BME280;34335;51.566;6.994;2022-08-05T01:18:31;100801.66;;;18.95;91.96
48553;BME280;34335;51.566;6.994;2022-08-05T01:21:09;100798.94;;;18.70;94.04
48553;BME280;34335;51.566;6.994;2022-08-05T01:23:48;100787.88;;;18.85;91.93
48553;BME280;34335;51.566;6.994;2022-08-05T01:26:46;100782.31;;;18.69;93.21
48553;BME280;34335;51.566;6.994;2022-08-05T01:29:26;100788.03;;;18.81;90.74
48553;BME280;34335;51.566;6.994;2022-08-05T01:31:57;100789.56;;;18.34;96.11
48553;BME280;34335;51.566;6.994;2022-08-05T01:34:34;100793.53;;;18.21;97.22
48553;BME280;34335;51.566;6.994;2022-08-05T01:37:23;100799.53;;;18.25;96.72
48553;BME280;34335;51.566;6.994;2022-08-05T01:39:51;100797.63;;;18.01;98.49
48553;BME280;34335;51.566;6.994;2022-08-05T01:42:19;100793.03;;;18.36;94.67
48553;BME280;34335;51.566;6.994;2022-08-05T01:44:46;100788.16;;;18.78;89.80
48553;BME280;34335;51.566;6.994;2022-08-05T01:47:16;100787.97;;;18.30;96.41
48553;BME280;34335;51.566;6.994;2022-08-05T01:49:44;100790.50;;;18.87;88.67
48553;BME280;34335;51.566;6.994;2022-08-05T01:52:10;100793.44;;;18.51;93.76
48553;BME280;34335;51.566;6.994;2022-08-05T01:54:43;100801.41;;;18.21;96.81
48553;BME280;34335;51.566;6.994;2022-08-05T01:57:09;100811.34;;;18.11;97.32
48553;BME280;34335;51.566;6.994;2022-08-05T01:59:38;100810.97;;;17.64;100.00
48553;BME280;34335;51.566;6.994;2022-08-05T02:02:05;100803.03;;;17.97;99.31
48553;BME280;34335;51.566;6.994;2022-08-05T02:04:32;100811.25;;;18.14;97.06
48553;BME280;34335;51.566;6.994;2022-08-05T02:06:59;100810.97;;;17.94;98.44
48553;BME280;34335;51.566;6.994;2022-08-05T02:09:25;100824.72;;;17.73;100.00
48553;BME280;34335;51.566;6.994;2022-08-05T02:14:52;100854.97;;;17.57;100.00
48553;BME280;34335;51.566;6.994;2022-08-05T02:17:38;100862.97;;;17.54;100.00
48553;BME280;34335;51.566;6.994;2022-08-05T02:20:09;100875.88;;;17.63;100.00
48553;BME280;34335;51.566;6.994;2022-08-05T02:22:40;100889.31;;;17.84;99.33
48553;BME280;34335;51.566;6.994;2022-08-05T02:25:21;100903.91;;;17.94;97.43
48553;BME280;34335;51.566;6.994;2022-08-05T02:27:49;100915.38;;;17.93;96.82
48553;BME280;34335;51.566;6.994;2022-08-05T02:30:16;100916.34;;;18.20;93.10
48553;BME280;34335;51.566;6.994;2022-08-05T02:32:46;100916.31;;;18.22;92.90
48553;BME280;34335;51.566;6.994;2022-08-05T02:35:14;100917.31;;;18.18;95.41
48553;BME280;34335;51.566;6.994;2022-08-05T02:37:42;100909.75;;;18.37;89.32
48553;BME280;34335;51.566;6.994;2022-08-05T02:40:08;100901.41;;;18.51;90.69
48553;BME280;34335;51.566;6.994;2022-08-05T02:42:34;100894.94;;;18.61;87.78
48553;BME280;34335;51.566;6.994;2022-08-05T02:45:01;100877.19;;;18.40;94.68
48553;BME280;34335;51.566;6.994;2022-08-05T02:47:29;100871.47;;;18.25;96.53
48553;BME280;34335;51.566;6.994;2022-08-05T02:49:56;100868.09;;;17.90;100.00
48553;BME280;34335;51.566;6.994;2022-08-05T02:52:22;100869.03;;;17.56;100.00
48553;BME280;34335;51.566;6.994;2022-08-05T02:54:49;100876.75;;;17.62;100.00
48553;BME280;34335;51.566;6.994;2022-08-05T02:57:17;100867.72;;;17.72;100.00
48553;BME280;34335;51.566;6.994;2022-08-05T02:59:45;100866.81;;;17.40;100.00
48553;BME280;34335;51.566;6.994;2022-08-05T03:02:12;100864.66;;;17.56;100.00
48553;BME280;34335;51.566;6.994;2022-08-05T03:04:39;100852.50;;;18.14;95.38
48553;BME280;34335;51.566;6.994;2022-08-05T03:07:05;100866.53;;;18.43;90.92
48553;BME280;34335;51.566;6.994;2022-08-05T03:09:31;100855.94;;;18.16;94.74
48553;BME280;34335;51.566;6.994;2022-08-05T03:11:57;100834.44;;;18.31;94.19
48553;BME280;34335;51.566;6.994;2022-08-05T03:14:22;100827.16;;;18.40;92.08
48553;BME280;34335;51.566;6.994;2022-08-05T03:16:47;100825.06;;;18.51;90.62
48553;BME280;34335;51.566;6.994;2022-08-05T03:19:13;100820.56;;;18.53;90.92
48553;BME280;34335;51.566;6.994;2022-08-05T03:21:38;100796.38;;;18.42;91.68
48553;BME280;34335;51.566;6.994;2022-08-05T03:24:05;100774.88;;;18.56;89.01
48553;BME280;34335;51.566;6.994;2022-08-05T03:26:31;100758.72;;;18.40;92.20
48553;BME280;34335;51.566;6.994;2022-08-05T03:28:56;100754.28;;;18.40;93.38
48553;BME280;34335;51.566;6.994;2022-08-05T03:31:22;100747.06;;;18.47;90.49
48553;BME280;34335;51.566;6.994;2022-08-05T03:33:49;100742.13;;;18.63;87.75
48553;BME280;34335;51.566;6.994;2022-08-05T03:36:15;100730.25;;;18.76;86.32
48553;BME280;34335;51.566;6.994;2022-08-05T03:38:41;100742.94;;;18.65;87.30
48553;BME280;34335;51.566;6.994;2022-08-05T03:41:07;100744.81;;;18.34;93.24
48553;BME280;34335;51.566;6.994;2022-08-05T03:43:32;100749.91;;;18.41;89.46
48553;BME280;34335;51.566;6.994;2022-08-05T03:45:58;100753.00;;;18.25;91.66
48553;BME280;34335;51.566;6.994;2022-08-05T03:48:23;100754.91;;;17.91;96.49
48553;BME280;34335;51.566;6.994;2022-08-05T03:51:04;100769.97;;;17.56;100.00
48553;BME280;34335;51.566;6.994;2022-08-05T03:53:36;100791.66;;;17.33;100.00
48553;BME280;34335;51.566;6.994;2022-08-05T03:56:10;100818.34;;;17.51;100.00
48553;BME280;34335;51.566;6.994;2022-08-05T03:58:37;100825.25;;;17.85;97.40
48553;BME280;34335;51.566;6.994;2022-08-05T04:01:06;100827.66;;;17.92;96.76
48553;BME280;34335;51.566;6.994;2022-08-05T04:03:33;100821.41;;;17.98;96.12
48553;BME280;34335;51.566;6.994;2022-08-05T04:06:03;100812.88;;;18.18;91.04
48553;BME280;34335;51.566;6.994;2022-08-05T04:08:29;100820.47;;;18.29;90.53
48553;BME280;34335;51.566;6.994;2022-08-05T04:10:56;100829.75;;;18.13;92.46
48553;BME280;34335;51.566;6.994;2022-08-05T04:13:22;100844.16;;;17.99;97.39
48553;BME280;34335;51.566;6.994;2022-08-05T04:15:49;100846.66;;;17.72;100.00
48553;BME280;34335;51.566;6.994;2022-08-05T04:18:15;100853.56;;;17.76;100.00
48553;BME280;34335;51.566;6.994;2022-08-05T04:20:40;100862.78;;;17.60;100.00
48553;BME280;34335;51.566;6.994;2022-08-05T04:23:06;100861.56;;;17.73;99.44
48553;BME280;34335;51.566;6.994;2022-08-05T04:25:32;100856.25;;;17.75;97.66
48553;BME280;34335;51.566;6.994;2022-08-05T04:27:57;100856.13;;;17.47;100.00
48553;BME280;34335;51.566;6.994;2022-08-05T04:30:23;100853.81;;;17.36;100.00
48553;BME280;34335;51.566;6.994;2022-08-05T04:32:48;100843.47;;;17.61;100.00
48553;BME280;34335;51.566;6.994;2022-08-05T04:35:13;100831.34;;;17.87;97.36
48553;BME280;34335;51.566;6.994;2022-08-05T04:37:39;100829.03;;;17.76;100.00
48553;BME280;34335;51.566;6.994;2022-08-05T04:40:04;100811.38;;;17.80;98.38
48553;BME280;34335;51.566;6.994;2022-08-05T04:42:30;100802.59;;;17.81;100.00
48553;BME280;34335;51.566;6.994;2022-08-05T04:44:55;100817.34;;;17.86;97.51
48553;BME280;34335;51.566;6.994;2022-08-05T04:47:20;100847.34;;;17.48;100.00
48553;BME280;34335;51.566;6.994;2022-08-05T04:49:46;100850.22;;;17.38;100.00
48553;BME280;34335;51.566;6.994;2022-08-05T04:52:11;100842.44;;;17.35;100.00
48553;BME280;34335;51.566;6.994;2022-08-05T04:54:36;100829.84;;;17.78;97.85
48553;BME280;34335;51.566;6.994;2022-08-05T04:57:01;100834.56;;;17.67;100.00
48553;BME280;34335;51.566;6.994;2022-08-05T04:59:27;100825.38;;;17.82;96.05
48553;BME280;34335;51.566;6.994;2022-08-05T05:01:52;100827.72;;;17.91;95.52
48553;BME280;34335;51.566;6.994;2022-08-05T05:04:18;100824.47;;;18.13;91.72
48553;BME280;34335;51.566;6.994;2022-08-05T05:06:43;100820.94;;;17.84;96.53
48553;BME280;34335;51.566;6.994;2022-08-05T05:09:10;100834.72;;;17.90;92.66
48553;BME280;34335;51.566;6.994;2022-08-05T05:11:35;100825.91;;;18.23;88.31
48553;BME280;34335;51.566;6.994;2022-08-05T05:14:01;100822.28;;;18.27;89.37
48553;BME280;34335;51.566;6.994;2022-08-05T05:16:27;100823.63;;;18.41;87.03
48553;BME280;34335;51.566;6.994;2022-08-05T05:18:53;100830.16;;;18.27;91.52
48553;BME280;34335;51.566;6.994;2022-08-05T05:21:18;100831.28;;;18.20;91.71
48553;BME280;34335;51.566;6.994;2022-08-05T05:23:43;100820.75;;;18.20;94.32
48553;BME280;34335;51.566;6.994;2022-08-05T05:26:08;100819.84;;;18.21;95.33
48553;BME280;34335;51.566;6.994;2022-08-05T05:28:34;100818.38;;;18.39;92.03
48553;BME280;34335;51.566;6.994;2022-08-05T05:30:59;100814.81;;;18.13;97.15
48553;BME280;34335;51.566;6.994;2022-08-05T05:33:24;100821.47;;;17.64;100.00
48553;BME280;34335;51.566;6.994;2022-08-05T05:35:50;100824.28;;;17.26;100.00
48553;BME280;34335;51.566;6.994;2022-08-05T05:38:16;100836.25;;;17.36;100.00
48553;BME280;34335;51.566;6.994;2022-08-05T05:40:42;100839.19;;;17.58;100.00
48553;BME280;34335;51.566;6.994;2022-08-05T05:43:07;100844.25;;;17.65;100.00
48553;BME280;34335;51.566;6.994;2022-08-05T05:45:33;100849.50;;;17.32;100.00
48553;BME280;34335;51.566;6.994;2022-08-05T05:47:58;100861.16;;;17.23;100.00
48553;BME280;34335;51.566;6.994;2022-08-05T05:50:24;100856.47;;;17.34;100.00
48553;BME280;34335;51.566;6.994;2022-08-05T05:52:50;100856.13;;;17.47;100.00
48553;BME280;34335;51.566;6.994;2022-08-05T05:55:16;100860.28;;;17.22;100.00
48553;BME280;34335;51.566;6.994;2022-08-05T05:57:43;100874.47;;;17.17;100.00
48553;BME280;34335;51.566;6.994;2022-08-05T06:00:12;100868.88;;;16.93;100.00
48553;BME280;34335;51.566;6.994;2022-08-05T06:02:38;100869.34;;;17.10;100.00
48553;BME280;34335;51.566;6.994;2022-08-05T06:05:05;100858.03;;;17.41;100.00
48553;BME280;34335;51.566;6.994;2022-08-05T06:07:31;100871.50;;;17.62;98.32
48553;BME280;34335;51.566;6.994;2022-08-05T06:09:56;100883.00;;;17.25;100.00
48553;BME280;34335;51.566;6.994;2022-08-05T06:12:21;100894.19;;;16.98;100.00
48553;BME280;34335;51.566;6.994;2022-08-05T06:14:47;100914.66;;;17.20;100.00
48553;BME280;34335;51.566;6.994;2022-08-05T06:17:12;100916.28;;;17.24;100.00
48553;BME280;34335;51.566;6.994;2022-08-05T06:19:38;100904.22;;;17.17;100.00
48553;BME280;34335;51.566;6.994;2022-08-05T06:22:05;100904.50;;;17.06;100.00
48553;BME280;34335;51.566;6.994;2022-08-05T06:24:31;100895.13;;;17.31;100.00
48553;BME280;34335;51.566;6.994;2022-08-05T06:26:57;100903.31;;;16.80;100.00
48553;BME280;34335;51.566;6.994;2022-08-05T06:29:23;100918.28;;;16.77;100.00
48553;BME280;34335;51.566;6.994;2022-08-05T06:31:49;100913.53;;;16.93;100.00
48553;BME280;34335;51.566;6.994;2022-08-05T06:34:14;100915.06;;;17.03;100.00
48553;BME280;34335;51.566;6.994;2022-08-05T06:36:40;100907.44;;;16.92;100.00
48553;BME280;34335;51.566;6.994;2022-08-05T06:39:05;100902.69;;;17.08;100.00
48553;BME280;34335;51.566;6.994;2022-08-05T06:41:30;100901.06;;;17.03;100.00
48553;BME280;34335;51.566;6.994;2022-08-05T06:43:56;100905.31;;;17.43;97.52
48553;BME280;34335;51.566;6.994;2022-08-05T06:46:21;100905.84;;;17.56;94.74
48553;BME280;34335;51.566;6.994;2022-08-05T06:48:46;100902.53;;;17.15;98.99
48553;BME280;34335;51.566;6.994;2022-08-05T06:51:12;100925.88;;;16.89;100.00
48553;BME280;34335;51.566;6.994;2022-08-05T06:53:37;100949.06;;;16.70;100.00
48553;BME280;34335;51.566;6.994;2022-08-05T06:56:02;100954.25;;;16.73;100.00
48553;BME280;34335;51.566;6.994;2022-08-05T06:58:28;100951.31;;;16.49;100.00
48553;BME280;34335;51.566;6.994;2022-08-05T07:00:57;100939.34;;;17.15;99.55
48553;BME280;34335;51.566;6.994;2022-08-05T07:03:22;100936.72;;;16.75;100.00
48553;BME280;34335;51.566;6.994;2022-08-05T07:05:48;100942.97;;;16.70;100.00
48553;BME280;34335;51.566;6.994;2022-08-05T07:08:13;100947.63;;;16.57;100.00
48553;BME280;34335;51.566;6.994;2022-08-05T07:10:38;100958.78;;;16.68;100.00
48553;BME280;34335;51.566;6.994;2022-08-05T07:13:04;100952.31;;;16.81;100.00
48553;BME280;34335;51.566;6.994;2022-08-05T07:15:47;100946.97;;;16.86;100.00
48553;BME280;34335;51.566;6.994;2022-08-05T07:18:31;100943.50;;;16.84;100.00
48553;BME280;34335;51.566;6.994;2022-08-05T07:20:56;100947.13;;;16.80;100.00
48553;BME280;34335;51.566;6.994;2022-08-05T07:23:22;100948.56;;;16.95;100.00
48553;BME280;34335;51.566;6.994;2022-08-05T07:25:47;100948.25;;;17.07;97.32
48553;BME280;34335;51.566;6.994;2022-08-05T07:28:12;100948.91;;;17.17;95.88
48553;BME280;34335;51.566;6.994;2022-08-05T07:30:38;100962.63;;;16.91;98.60
48553;BME280;34335;51.566;6.994;2022-08-05T07:33:05;100958.38;;;16.85;100.00
48553;BME280;34335;51.566;6.994;2022-08-05T07:35:30;100964.50;;;16.86;99.85
48553;BME280;34335;51.566;6.994;2022-08-05T07:37:56;100964.34;;;16.92;99.53
48553;BME280;34335;51.566;6.994;2022-08-05T07:40:21;100970.44;;;16.55;100.00
48553;BME280;34335;51.566;6.994;2022-08-05T07:42:47;100987.03;;;16.57;100.00
48553;BME280;34335;51.566;6.994;2022-08-05T07:45:12;100998.59;;;16.02;100.00
48553;BME280;34335;51.566;6.994;2022-08-05T07:47:38;101000.34;;;16.02;100.00
48553;BME280;34335;51.566;6.994;2022-08-05T07:50:04;100998.31;;;16.16;100.00
48553;BME280;34335;51.566;6.994;2022-08-05T07:52:29;101015.16;;;16.50;100.00
48553;BME280;34335;51.566;6.994;2022-08-05T07:54:54;101019.78;;;16.37;100.00
48553;BME280;34335;51.566;6.994;2022-08-05T07:57:20;101030.19;;;16.42;100.00
48553;BME280;34335;51.566;6.994;2022-08-05T07:59:45;101018.25;;;16.69;99.20
48553;BME280;34335;51.566;6.994;2022-08-05T08:02:10;101003.00;;;16.87;98.32
48553;BME280;34335;51.566;6.994;2022-08-05T08:04:35;101001.00;;;16.98;95.93
48553;BME280;34335;51.566;6.994;2022-08-05T08:07:01;100999.66;;;16.78;99.72
48553;BME280;34335;51.566;6.994;2022-08-05T08:09:26;101010.25;;;16.75;99.75
48553;BME280;34335;51.566;6.994;2022-08-05T08:11:52;101021.00;;;16.63;100.00
48553;BME280;34335;51.566;6.994;2022-08-05T08:14:17;101023.34;;;16.77;99.85
48553;BME280;34335;51.566;6.994;2022-08-05T08:16:42;101030.34;;;16.34;100.00
48553;BME280;34335;51.566;6.994;2022-08-05T08:19:08;101030.41;;;16.31;100.00
48553;BME280;34335;51.566;6.994;2022-08-05T08:21:33;101036.44;;;16.36;100.00
48553;BME280;34335;51.566;6.994;2022-08-05T08:23:59;101044.00;;;16.51;100.00
48553;BME280;34335;51.566;6.994;2022-08-05T08:26:24;101054.00;;;16.76;100.00
48553;BME280;34335;51.566;6.994;2022-08-05T08:28:49;101054.84;;;16.77;97.65
48553;BME280;34335;51.566;6.994;2022-08-05T08:31:14;101051.59;;;17.08;93.45
48553;BME280;34335;51.566;6.994;2022-08-05T08:33:40;101043.50;;;17.17;92.91
48553;BME280;34335;51.566;6.994;2022-08-05T08:36:06;101034.25;;;16.99;96.02
48553;BME280;34335;51.566;6.994;2022-08-05T08:38:31;101049.44;;;16.85;98.21
48553;BME280;34335;51.566;6.994;2022-08-05T08:40:57;101047.34;;;17.02;95.91
48553;BME280;34335;51.566;6.994;2022-08-05T08:43:24;101067.69;;;16.92;97.49
48553;BME280;34335;51.566;6.994;2022-08-05T08:45:52;101071.03;;;16.99;96.18
48553;BME280;34335;51.566;6.994;2022-08-05T08:48:19;101078.44;;;16.78;97.60
48553;BME280;34335;51.566;6.994;2022-08-05T08:50:45;101089.03;;;16.75;96.85
48553;BME280;34335;51.566;6.994;2022-08-05T08:53:14;101089.50;;;16.52;99.21
48553;BME280;34335;51.566;6.994;2022-08-05T08:55:40;101097.78;;;16.30;100.00
48553;BME280;34335;51.566;6.994;2022-08-05T08:58:05;101103.19;;;16.21;100.00
48553;BME280;34335;51.566;6.994;2022-08-05T09:00:32;101099.28;;;16.44;98.88
48553;BME280;34335;51.566;6.994;2022-08-05T09:02:57;101092.78;;;16.62;100.00
48553;BME280;34335;51.566;6.994;2022-08-05T09:05:23;101085.53;;;16.75;98.64
48553;BME280;34335;51.566;6.994;2022-08-05T09:07:52;101086.16;;;16.88;96.86
48553;BME280;34335;51.566;6.994;2022-08-05T09:10:19;101090.47;;;16.90;98.10
48553;BME280;34335;51.566;6.994;2022-08-05T09:12:44;101070.50;;;17.24;92.20
48553;BME280;34335;51.566;6.994;2022-08-05T09:15:09;101085.06;;;16.98;95.79
48553;BME280;34335;51.566;6.994;2022-08-05T09:17:35;101093.22;;;16.84;96.92
48553;BME280;34335;51.566;6.994;2022-08-05T09:20:01;101087.16;;;16.80;99.14
48553;BME280;34335;51.566;6.994;2022-08-05T09:22:28;101097.41;;;16.96;95.95
48553;BME280;34335;51.566;6.994;2022-08-05T09:24:58;101100.38;;;17.20;93.44
48553;BME280;34335;51.566;6.994;2022-08-05T09:27:35;101097.25;;;17.02;97.51
48553;BME280;34335;51.566;6.994;2022-08-05T09:30:02;101095.31;;;17.12;95.66
48553;BME280;34335;51.566;6.994;2022-08-05T09:32:34;101094.22;;;17.21;97.86
48553;BME280;34335;51.566;6.994;2022-08-05T09:35:08;101104.19;;;17.05;100.00
48553;BME280;34335;51.566;6.994;2022-08-05T09:37:34;101117.78;;;16.81;100.00
48553;BME280;34335;51.566;6.994;2022-08-05T09:39:59;101115.06;;;16.88;100.00
48553;BME280;34335;51.566;6.994;2022-08-05T09:42:25;101124.78;;;16.82;100.00
48553;BME280;34335;51.566;6.994;2022-08-05T09:44:52;101135.78;;;17.03;98.06
48553;BME280;34335;51.566;6.994;2022-08-05T09:47:23;101133.19;;;17.00;99.15
48553;BME280;34335;51.566;6.994;2022-08-05T09:49:55;101137.72;;;16.93;99.04
48553;BME280;34335;51.566;6.994;2022-08-05T10:02:35;101158.22;;;17.18;97.79
48553;BME280;34335;51.566;6.994;2022-08-05T10:05:27;101156.78;;;17.46;95.61
48553;BME280;34335;51.566;6.994;2022-08-05T10:08:03;101161.56;;;17.66;95.56
48553;BME280;34335;51.566;6.994;2022-08-05T10:10:46;101172.88;;;17.69;95.41
48553;BME280;34335;51.566;6.994;2022-08-05T10:13:28;101179.69;;;17.78;94.33
48553;BME280;34335;51.566;6.994;2022-08-05T10:15:54;101183.19;;;17.79;94.19
48553;BME280;34335;51.566;6.994;2022-08-05T10:18:22;101178.41;;;17.98;92.73
48553;BME280;34335;51.566;6.994;2022-08-05T10:20:54;101184.34;;;18.06;93.97
48553;BME280;34335;51.566;6.994;2022-08-05T10:23:26;101187.22;;;18.31;91.81
48553;BME280;34335;51.566;6.994;2022-08-05T10:25:54;101194.19;;;18.32;91.93
48553;BME280;34335;51.566;6.994;2022-08-05T10:28:20;101203.69;;;18.38;91.63
48553;BME280;34335;51.566;6.994;2022-08-05T10:30:46;101199.59;;;18.61;92.23
48553;BME280;34335;51.566;6.994;2022-08-05T10:33:11;101196.66;;;18.72;92.60
48553;BME280;34335;51.566;6.994;2022-08-05T10:35:37;101200.47;;;18.94;92.01
48553;BME280;34335;51.566;6.994;2022-08-05T10:38:03;101196.97;;;18.92;87.41
48553;BME280;34335;51.566;6.994;2022-08-05T10:40:44;101196.84;;;19.28;87.41
48553;BME280;34335;51.566;6.994;2022-08-05T10:43:12;101201.97;;;19.35;85.99
48553;BME280;34335;51.566;6.994;2022-08-05T10:45:41;101215.16;;;19.65;85.55
48553;BME280;34335;51.566;6.994;2022-08-05T10:48:35;101216.22;;;19.87;82.43
48553;BME280;34335;51.566;6.994;2022-08-05T10:51:19;101214.63;;;20.10;81.64
48553;BME280;34335;51.566;6.994;2022-08-05T10:53:55;101212.56;;;20.45;81.61
48553;BME280;34335;51.566;6.994;2022-08-05T10:56:23;101222.81;;;20.29;81.78
48553;BME280;34335;51.566;6.994;2022-08-05T10:59:01;101226.81;;;20.66;79.87
48553;BME280;34335;51.566;6.994;2022-08-05T11:01:36;101233.19;;;20.61;78.11
48553;BME280;34335;51.566;6.994;2022-08-05T11:04:07;101225.38;;;20.83;77.80
48553;BME280;34335;51.566;6.994;2022-08-05T11:06:34;101226.75;;;20.43;77.68
48553;BME280;34335;51.566;6.994;2022-08-05T11:11:36;101226.34;;;21.29;76.48
48553;BME280;34335;51.566;6.994;2022-08-05T11:14:02;101230.13;;;21.22;76.50
48553;BME280;34335;51.566;6.994;2022-08-05T11:16:28;101227.78;;;21.38;74.72
48553;BME280;34335;51.566;6.994;2022-08-05T11:19:29;101217.31;;;20.61;76.05
48553;BME280;34335;51.566;6.994;2022-08-05T11:25:27;101223.09;;;21.69;73.81
48553;BME280;34335;51.566;6.994;2022-08-05T11:27:53;101209.25;;;22.06;74.09
48553;BME280;34335;51.566;6.994;2022-08-05T11:30:20;101226.69;;;21.90;72.98
48553;BME280;34335;51.566;6.994;2022-08-05T11:32:45;101222.06;;;21.95;73.72
48553;BME280;34335;51.566;6.994;2022-08-05T11:35:52;101236.69;;;21.83;72.68
48553;BME280;34335;51.566;6.994;2022-08-05T11:38:18;101240.47;;;21.98;72.37
48553;BME280;34335;51.566;6.994;2022-08-05T11:43:32;101235.22;;;22.62;70.86
48553;BME280;34335;51.566;6.994;2022-08-05T11:45:59;101236.00;;;22.43;70.69
48553;BME280;34335;51.566;6.994;2022-08-05T11:48:25;101241.97;;;22.05;69.95
48553;BME280;34335;51.566;6.994;2022-08-05T11:50:51;101255.38;;;21.78;72.34
48553;BME280;34335;51.566;6.994;2022-08-05T11:53:17;101245.63;;;22.66;68.35
48553;BME280;34335;51.566;6.994;2022-08-05T11:55:57;101244.25;;;23.18;67.86
48553;BME280;34335;51.566;6.994;2022-08-05T11:58:26;101241.66;;;22.77;68.01
48553;BME280;34335;51.566;6.994;2022-08-05T12:01:03;101240.69;;;23.38;68.97
48553;BME280;34335;51.566;6.994;2022-08-05T12:03:29;101234.16;;;23.26;66.73
48553;BME280;34335;51.566;6.994;2022-08-05T12:06:02;101238.91;;;23.39;67.51
48553;BME280;34335;51.566;6.994;2022-08-05T12:08:28;101240.41;;;23.04;65.19
48553;BME280;34335;51.566;6.994;2022-08-05T12:10:57;101238.84;;;23.59;62.24
48553;BME280;34335;51.566;6.994;2022-08-05T12:13:24;101243.53;;;23.91;65.57
48553;BME280;34335;51.566;6.994;2022-08-05T12:15:49;101232.94;;;24.27;62.41
48553;BME280;34335;51.566;6.994;2022-08-05T12:18:18;101239.22;;;24.07;63.99
48553;BME280;34335;51.566;6.994;2022-08-05T12:20:43;101239.03;;;24.65;62.27
48553;BME280;34335;51.566;6.994;2022-08-05T12:23:09;101238.72;;;24.36;62.87
48553;BME280;34335;51.566;6.994;2022-08-05T12:25:51;101244.84;;;24.01;60.32
48553;BME280;34335;51.566;6.994;2022-08-05T12:28:34;101252.09;;;23.40;63.54
48553;BME280;34335;51.566;6.994;2022-08-05T12:33:26;101258.75;;;22.49;66.97
48553;BME280;34335;51.566;6.994;2022-08-05T12:35:53;101275.63;;;22.24;65.91
48553;BME280;34335;51.566;6.994;2022-08-05T12:38:19;101256.63;;;22.98;65.70
48553;BME280;34335;51.566;6.994;2022-08-05T12:40:45;101261.38;;;23.31;63.50
48553;BME280;34335;51.566;6.994;2022-08-05T12:43:10;101283.19;;;21.89;64.81
48553;BME280;34335;51.566;6.994;2022-08-05T12:45:36;101276.59;;;22.66;65.23
48553;BME280;34335;51.566;6.994;2022-08-05T12:48:14;101279.53;;;23.41;64.43
48553;BME280;34335;51.566;6.994;2022-08-05T12:50:39;101279.13;;;23.87;61.37
48553;BME280;34335;51.566;6.994;2022-08-05T12:53:05;101281.66;;;23.52;62.22
48553;BME280;34335;51.566;6.994;2022-08-05T12:55:30;101280.72;;;23.33;59.40
48553;BME280;34335;51.566;6.994;2022-08-05T12:57:57;101282.81;;;23.84;59.25
48553;BME280;34335;51.566;6.994;2022-08-05T13:00:25;101289.13;;;24.01;52.23
48553;BME280;34335;51.566;6.994;2022-08-05T13:02:52;101286.53;;;24.18;53.31
48553;BME280;34335;51.566;6.994;2022-08-05T13:05:17;101287.53;;;24.16;53.51
48553;BME280;34335;51.566;6.994;2022-08-05T13:07:44;101284.38;;;24.79;56.87
48553;BME280;34335;51.566;6.994;2022-08-05T13:10:12;101289.69;;;24.97;54.34
48553;BME280;34335;51.566;6.994;2022-08-05T13:12:42;101298.38;;;24.48;52.47
48553;BME280;34335;51.566;6.994;2022-08-05T13:15:12;101292.06;;;23.37;54.20
48553;BME280;34335;51.566;6.994;2022-08-05T13:17:38;101301.13;;;24.09;54.10